sensor_id;sensor_type;location;lat;lon;timestamp;P1;durP1;ratioP1;P2;durP2;ratioP2
1603;SDS011;795;49.296;11.348;2023-03-01T00:01:40;18.95;;;11.73;;
1603;SDS011;795;49.296;11.348;2023-03-01T00:04:07;15.98;;;11.50;;
1603;SDS011;795;49.296;11.348;2023-03-01T00:06:34;18.85;;;12.52;;
1603;SDS011;795;49.296;11.348;2023-03-01T00:09:01;19.15;;;11.20;;
1603;SDS011;795;49.296;11.348;2023-03-01T00:11:29;19.02;;;11.55;;
1603;SDS011;795;49.296;11.348;2023-03-01T00:13:59;24.88;;;13.65;;
1603;SDS011;795;49.296;11.348;2023-03-01T00:16:29;24.83;;;13.02;;
1603;SDS011;795;49.296;11.348;2023-03-01T00:19:00;20.15;;;11.35;;
1603;SDS011;795;49.296;11.348;2023-03-01T00:21:28;20.23;;;12.68;;
1603;SDS011;795;49.296;11.348;2023-03-01T00:23:56;17.67;;;11.35;;
1603;SDS011;795;49.296;11.348;2023-03-01T00:26:24;19.52;;;11.90;;
1603;SDS011;795;49.296;11.348;2023-03-01T00:28:54;24.17;;;11.73;;
1603;SDS011;795;49.296;11.348;2023-03-01T00:31:25;18.27;;;12.05;;
1603;SDS011;795;49.296;11.348;2023-03-01T00:33:58;21.38;;;13.45;;
1603;SDS011;795;49.296;11.348;2023-03-01T00:36:30;20.73;;;11.02;;
1603;SDS011;795;49.296;11.348;2023-03-01T00:39:02;20.00;;;12.63;;
1603;SDS011;795;49.296;11.348;2023-03-01T00:41:35;18.42;;;11.65;;
1603;SDS011;795;49.296;11.348;2023-03-01T00:44:02;18.60;;;13.73;;
1603;SDS011;795;49.296;11.348;2023-03-01T00:46:29;23.40;;;14.38;;
1603;SDS011;795;49.296;11.348;2023-03-01T00:48:57;21.88;;;13.98;;
1603;SDS011;795;49.296;11.348;2023-03-01T00:51:25;20.70;;;12.77;;
1603;SDS011;795;49.296;11.348;2023-03-01T00:53:55;20.92;;;11.77;;
1603;SDS011;795;49.296;11.348;2023-03-01T00:56:26;26.55;;;12.70;;
1603;SDS011;795;49.296;11.348;2023-03-01T00:58:55;20.67;;;12.35;;
1603;SDS011;795;49.296;11.348;2023-03-01T01:01:23;16.85;;;10.85;;
1603;SDS011;795;49.296;11.348;2023-03-01T01:04:02;21.65;;;13.00;;
1603;SDS011;795;49.296;11.348;2023-03-01T01:06:39;21.52;;;11.32;;
1603;SDS011;795;49.296;11.348;2023-03-01T01:09:14;22.00;;;13.55;;
1603;SDS011;795;49.296;11.348;2023-03-01T01:11:44;23.48;;;13.15;;
1603;SDS011;795;49.296;11.348;2023-03-01T01:14:16;19.58;;;12.27;;
1603;SDS011;795;49.296;11.348;2023-03-01T01:16:45;20.77;;;11.52;;
1603;SDS011;795;49.296;11.348;2023-03-01T01:19:12;20.02;;;12.02;;
1603;SDS011;795;49.296;11.348;2023-03-01T01:21:40;20.58;;;11.55;;
1603;SDS011;795;49.296;11.348;2023-03-01T01:24:11;19.42;;;11.90;;
1603;SDS011;795;49.296;11.348;2023-03-01T01:26:38;14.10;;;9.05;;
1603;SDS011;795;49.296;11.348;2023-03-01T01:29:05;18.63;;;12.80;;
1603;SDS011;795;49.296;11.348;2023-03-01T01:31:34;17.98;;;11.93;;
1603;SDS011;795;49.296;11.348;2023-03-01T01:34:04;19.02;;;12.10;;
1603;SDS011;795;49.296;11.348;2023-03-01T01:36:38;17.20;;;10.50;;
1603;SDS011;795;49.296;11.348;2023-03-01T01:39:05;16.52;;;11.70;;
1603;SDS011;795;49.296;11.348;2023-03-01T01:41:33;16.75;;;11.45;;
1603;SDS011;795;49.296;11.348;2023-03-01T01:44:10;19.95;;;12.50;;
1603;SDS011;795;49.296;11.348;2023-03-01T01:49:49;21.52;;;12.05;;
1603;SDS011;795;49.296;11.348;2023-03-01T01:52:27;14.15;;;10.13;;
1603;SDS011;795;49.296;11.348;2023-03-01T01:57:52;16.38;;;10.98;;
1603;SDS011;795;49.296;11.348;2023-03-01T02:00:26;16.65;;;11.38;;
1603;SDS011;795;49.296;11.348;2023-03-01T02:02:56;19.48;;;11.45;;
1603;SDS011;795;49.296;11.348;2023-03-01T02:08:40;19.60;;;13.13;;
1603;SDS011;795;49.296;11.348;2023-03-01T02:11:11;18.05;;;11.65;;
1603;SDS011;795;49.296;11.348;2023-03-01T02:13:40;17.38;;;10.85;;
1603;SDS011;795;49.296;11.348;2023-03-01T02:16:09;19.65;;;11.45;;
1603;SDS011;795;49.296;11.348;2023-03-01T02:18:41;16.92;;;10.93;;
1603;SDS011;795;49.296;11.348;2023-03-01T02:21:19;20.10;;;11.13;;
1603;SDS011;795;49.296;11.348;2023-03-01T02:27:33;19.58;;;11.27;;
1603;SDS011;795;49.296;11.348;2023-03-01T02:30:15;18.27;;;13.43;;
1603;SDS011;795;49.296;11.348;2023-03-01T02:32:44;17.48;;;11.32;;
1603;SDS011;795;49.296;11.348;2023-03-01T02:35:14;16.85;;;11.00;;
1603;SDS011;795;49.296;11.348;2023-03-01T02:37:45;24.77;;;13.27;;
1603;SDS011;795;49.296;11.348;2023-03-01T02:40:16;25.80;;;12.15;;
1603;SDS011;795;49.296;11.348;2023-03-01T02:42:52;18.08;;;11.85;;
1603;SDS011;795;49.296;11.348;2023-03-01T02:45:25;18.30;;;11.77;;
1603;SDS011;795;49.296;11.348;2023-03-01T02:47:53;21.77;;;11.27;;
1603;SDS011;795;49.296;11.348;2023-03-01T02:53:04;18.58;;;12.02;;
1603;SDS011;795;49.296;11.348;2023-03-01T02:55:51;18.10;;;10.30;;
1603;SDS011;795;49.296;11.348;2023-03-01T02:58:18;19.38;;;11.88;;
1603;SDS011;795;49.296;11.348;2023-03-01T03:00:46;23.17;;;12.60;;
1603;SDS011;795;49.296;11.348;2023-03-01T03:03:16;18.27;;;10.73;;
1603;SDS011;795;49.296;11.348;2023-03-01T03:05:46;27.73;;;12.80;;
1603;SDS011;795;49.296;11.348;2023-03-01T03:08:14;18.88;;;11.27;;
1603;SDS011;795;49.296;11.348;2023-03-01T03:10:50;24.88;;;12.43;;
1603;SDS011;795;49.296;11.348;2023-03-01T03:13:16;20.83;;;12.70;;
1603;SDS011;795;49.296;11.348;2023-03-01T03:15:45;19.05;;;12.13;;
1603;SDS011;795;49.296;11.348;2023-03-01T03:18:14;17.75;;;11.68;;
1603;SDS011;795;49.296;11.348;2023-03-01T03:20:43;23.00;;;12.85;;
1603;SDS011;795;49.296;11.348;2023-03-01T03:23:12;25.92;;;11.75;;
1603;SDS011;795;49.296;11.348;2023-03-01T03:25:39;25.27;;;11.90;;
1603;SDS011;795;49.296;11.348;2023-03-01T03:28:06;28.52;;;13.30;;
1603;SDS011;795;49.296;11.348;2023-03-01T03:30:37;23.33;;;12.55;;
1603;SDS011;795;49.296;11.348;2023-03-01T03:33:07;19.85;;;12.18;;
1603;SDS011;795;49.296;11.348;2023-03-01T03:35:43;23.88;;;12.10;;
1603;SDS011;795;49.296;11.348;2023-03-01T03:38:15;21.00;;;12.68;;
1603;SDS011;795;49.296;11.348;2023-03-01T03:40:49;22.27;;;11.18;;
1603;SDS011;795;49.296;11.348;2023-03-01T03:43:30;19.15;;;11.25;;
1603;SDS011;795;49.296;11.348;2023-03-01T03:46:01;18.98;;;11.73;;
1603;SDS011;795;49.296;11.348;2023-03-01T03:48:35;24.70;;;12.88;;
1603;SDS011;795;49.296;11.348;2023-03-01T03:51:11;20.60;;;12.55;;
1603;SDS011;795;49.296;11.348;2023-03-01T03:53:41;19.40;;;11.80;;
1603;SDS011;795;49.296;11.348;2023-03-01T03:56:10;25.70;;;12.07;;
1603;SDS011;795;49.296;11.348;2023-03-01T03:58:38;25.20;;;12.25;;
1603;SDS011;795;49.296;11.348;2023-03-01T04:01:05;16.33;;;11.98;;
1603;SDS011;795;49.296;11.348;2023-03-01T04:03:32;21.60;;;13.20;;
1603;SDS011;795;49.296;11.348;2023-03-01T04:06:01;21.35;;;13.77;;
1603;SDS011;795;49.296;11.348;2023-03-01T04:08:30;21.88;;;12.05;;
1603;SDS011;795;49.296;11.348;2023-03-01T04:10:59;19.73;;;11.90;;
1603;SDS011;795;49.296;11.348;2023-03-01T04:13:50;18.13;;;12.48;;
1603;SDS011;795;49.296;11.348;2023-03-01T04:16:20;21.67;;;13.25;;
1603;SDS011;795;49.296;11.348;2023-03-01T04:18:49;20.30;;;13.25;;
1603;SDS011;795;49.296;11.348;2023-03-01T04:21:16;19.58;;;12.65;;
1603;SDS011;795;49.296;11.348;2023-03-01T04:23:43;22.02;;;11.25;;
1603;SDS011;795;49.296;11.348;2023-03-01T04:26:10;18.17;;;11.82;;
1603;SDS011;795;49.296;11.348;2023-03-01T04:28:38;23.05;;;12.88;;
1603;SDS011;795;49.296;11.348;2023-03-01T04:31:13;20.35;;;11.90;;
1603;SDS011;795;49.296;11.348;2023-03-01T04:33:45;21.25;;;12.32;;
1603;SDS011;795;49.296;11.348;2023-03-01T04:36:23;22.00;;;12.77;;
1603;SDS011;795;49.296;11.348;2023-03-01T04:38:54;18.13;;;12.35;;
1603;SDS011;795;49.296;11.348;2023-03-01T04:41:22;18.30;;;10.93;;
1603;SDS011;795;49.296;11.348;2023-03-01T04:43:51;16.95;;;11.40;;
1603;SDS011;795;49.296;11.348;2023-03-01T04:46:19;19.08;;;12.27;;
1603;SDS011;795;49.296;11.348;2023-03-01T04:48:47;21.25;;;13.13;;
1603;SDS011;795;49.296;11.348;2023-03-01T04:51:15;17.52;;;11.68;;
1603;SDS011;795;49.296;11.348;2023-03-01T04:53:42;22.85;;;13.07;;
1603;SDS011;795;49.296;11.348;2023-03-01T04:56:10;27.90;;;13.85;;
1603;SDS011;795;49.296;11.348;2023-03-01T04:58:40;25.10;;;14.90;;
1603;SDS011;795;49.296;11.348;2023-03-01T05:01:10;27.65;;;13.95;;
1603;SDS011;795;49.296;11.348;2023-03-01T05:03:42;20.45;;;11.60;;
1603;SDS011;795;49.296;11.348;2023-03-01T05:06:16;18.00;;;12.75;;
1603;SDS011;795;49.296;11.348;2023-03-01T05:08:46;18.73;;;12.23;;
1603;SDS011;795;49.296;11.348;2023-03-01T05:11:13;19.90;;;13.45;;
1603;SDS011;795;49.296;11.348;2023-03-01T05:13:40;21.73;;;12.35;;
1603;SDS011;795;49.296;11.348;2023-03-01T05:16:08;20.02;;;12.35;;
1603;SDS011;795;49.296;11.348;2023-03-01T05:18:37;21.23;;;11.95;;
1603;SDS011;795;49.296;11.348;2023-03-01T05:21:08;19.23;;;12.73;;
1603;SDS011;795;49.296;11.348;2023-03-01T05:23:43;30.30;;;12.15;;
1603;SDS011;795;49.296;11.348;2023-03-01T05:26:13;22.98;;;13.15;;
1603;SDS011;795;49.296;11.348;2023-03-01T05:28:58;25.45;;;13.07;;
1603;SDS011;795;49.296;11.348;2023-03-01T05:31:26;23.58;;;14.77;;
1603;SDS011;795;49.296;11.348;2023-03-01T05:33:53;26.67;;;13.70;;
1603;SDS011;795;49.296;11.348;2023-03-01T05:36:20;21.20;;;12.05;;
1603;SDS011;795;49.296;11.348;2023-03-01T05:38:47;22.17;;;12.80;;
1603;SDS011;795;49.296;11.348;2023-03-01T05:41:14;26.90;;;14.07;;
1603;SDS011;795;49.296;11.348;2023-03-01T05:43:42;23.15;;;14.07;;
1603;SDS011;795;49.296;11.348;2023-03-01T05:46:10;23.10;;;13.90;;
1603;SDS011;795;49.296;11.348;2023-03-01T05:48:39;27.67;;;12.73;;
1603;SDS011;795;49.296;11.348;2023-03-01T05:51:06;19.58;;;13.63;;
1603;SDS011;795;49.296;11.348;2023-03-01T05:53:33;23.60;;;14.07;;
1603;SDS011;795;49.296;11.348;2023-03-01T05:56:02;20.10;;;12.73;;
1603;SDS011;795;49.296;11.348;2023-03-01T05:58:30;22.40;;;14.02;;
1603;SDS011;795;49.296;11.348;2023-03-01T06:00:58;23.17;;;12.85;;
1603;SDS011;795;49.296;11.348;2023-03-01T06:03:25;25.48;;;14.48;;
1603;SDS011;795;49.296;11.348;2023-03-01T06:05:55;29.70;;;11.57;;
1603;SDS011;795;49.296;11.348;2023-03-01T06:08:24;24.38;;;12.02;;
1603;SDS011;795;49.296;11.348;2023-03-01T06:10:53;24.55;;;12.25;;
1603;SDS011;795;49.296;11.348;2023-03-01T06:13:20;20.25;;;12.48;;
1603;SDS011;795;49.296;11.348;2023-03-01T06:15:49;25.85;;;13.18;;
1603;SDS011;795;49.296;11.348;2023-03-01T06:18:16;27.20;;;14.65;;
1603;SDS011;795;49.296;11.348;2023-03-01T06:20:43;25.02;;;15.25;;
1603;SDS011;795;49.296;11.348;2023-03-01T06:23:09;26.52;;;14.10;;
1603;SDS011;795;49.296;11.348;2023-03-01T06:25:36;20.67;;;14.40;;
1603;SDS011;795;49.296;11.348;2023-03-01T06:28:03;18.90;;;12.20;;
1603;SDS011;795;49.296;11.348;2023-03-01T06:30:30;22.08;;;14.40;;
1603;SDS011;795;49.296;11.348;2023-03-01T06:32:58;24.25;;;13.63;;
1603;SDS011;795;49.296;11.348;2023-03-01T06:35:27;21.77;;;13.27;;
1603;SDS011;795;49.296;11.348;2023-03-01T06:37:57;18.77;;;13.23;;
1603;SDS011;795;49.296;11.348;2023-03-01T06:40:27;29.10;;;13.32;;
1603;SDS011;795;49.296;11.348;2023-03-01T06:42:57;22.90;;;14.13;;
1603;SDS011;795;49.296;11.348;2023-03-01T06:45:25;23.40;;;14.05;;
1603;SDS011;795;49.296;11.348;2023-03-01T06:47:52;30.95;;;15.98;;
1603;SDS011;795;49.296;11.348;2023-03-01T06:50:26;22.77;;;14.38;;
1603;SDS011;795;49.296;11.348;2023-03-01T06:52:57;27.42;;;14.23;;
1603;SDS011;795;49.296;11.348;2023-03-01T06:55:24;23.40;;;13.38;;
1603;SDS011;795;49.296;11.348;2023-03-01T06:57:58;33.03;;;16.73;;
1603;SDS011;795;49.296;11.348;2023-03-01T07:00:27;25.70;;;15.55;;
1603;SDS011;795;49.296;11.348;2023-03-01T07:02:57;21.38;;;12.75;;
1603;SDS011;795;49.296;11.348;2023-03-01T07:05:28;20.17;;;12.50;;
1603;SDS011;795;49.296;11.348;2023-03-01T07:07:56;22.85;;;14.20;;
1603;SDS011;795;49.296;11.348;2023-03-01T07:10:23;23.42;;;15.02;;
1603;SDS011;795;49.296;11.348;2023-03-01T07:12:53;29.70;;;14.65;;
1603;SDS011;795;49.296;11.348;2023-03-01T07:15:25;24.20;;;14.20;;
1603;SDS011;795;49.296;11.348;2023-03-01T07:17:55;21.67;;;13.40;;
1603;SDS011;795;49.296;11.348;2023-03-01T07:20:22;23.58;;;13.90;;
1603;SDS011;795;49.296;11.348;2023-03-01T07:22:51;28.50;;;16.17;;
1603;SDS011;795;49.296;11.348;2023-03-01T07:25:24;25.50;;;14.20;;
1603;SDS011;795;49.296;11.348;2023-03-01T07:27:52;24.70;;;15.10;;
1603;SDS011;795;49.296;11.348;2023-03-01T07:30:20;27.33;;;16.08;;
1603;SDS011;795;49.296;11.348;2023-03-01T07:32:48;20.40;;;14.25;;
1603;SDS011;795;49.296;11.348;2023-03-01T07:35:15;22.17;;;14.23;;
1603;SDS011;795;49.296;11.348;2023-03-01T07:37:42;21.45;;;13.98;;
1603;SDS011;795;49.296;11.348;2023-03-01T07:40:10;29.17;;;15.40;;
1603;SDS011;795;49.296;11.348;2023-03-01T07:42:38;26.35;;;16.30;;
1603;SDS011;795;49.296;11.348;2023-03-01T07:45:05;29.25;;;14.23;;
1603;SDS011;795;49.296;11.348;2023-03-01T07:47:34;30.10;;;16.15;;
1603;SDS011;795;49.296;11.348;2023-03-01T07:50:02;23.42;;;14.30;;
1603;SDS011;795;49.296;11.348;2023-03-01T07:52:30;26.20;;;16.05;;
1603;SDS011;795;49.296;11.348;2023-03-01T07:54:57;29.42;;;14.30;;
1603;SDS011;795;49.296;11.348;2023-03-01T07:57:24;25.63;;;14.27;;
1603;SDS011;795;49.296;11.348;2023-03-01T07:59:51;24.30;;;14.38;;
1603;SDS011;795;49.296;11.348;2023-03-01T08:02:18;24.40;;;15.15;;
1603;SDS011;795;49.296;11.348;2023-03-01T08:04:44;20.70;;;15.60;;
1603;SDS011;795;49.296;11.348;2023-03-01T08:07:11;21.27;;;14.07;;
1603;SDS011;795;49.296;11.348;2023-03-01T08:09:38;24.55;;;14.27;;
1603;SDS011;795;49.296;11.348;2023-03-01T08:12:05;24.42;;;15.75;;
1603;SDS011;795;49.296;11.348;2023-03-01T08:14:32;24.63;;;14.82;;
1603;SDS011;795;49.296;11.348;2023-03-01T08:16:59;26.87;;;16.57;;
1603;SDS011;795;49.296;11.348;2023-03-01T08:19:28;22.33;;;14.77;;
1603;SDS011;795;49.296;11.348;2023-03-01T08:21:56;22.20;;;15.70;;
1603;SDS011;795;49.296;11.348;2023-03-01T08:24:24;27.57;;;16.00;;
1603;SDS011;795;49.296;11.348;2023-03-01T08:26:51;25.90;;;15.13;;
1603;SDS011;795;49.296;11.348;2023-03-01T08:29:18;22.77;;;14.30;;
1603;SDS011;795;49.296;11.348;2023-03-01T08:31:45;25.93;;;14.67;;
1603;SDS011;795;49.296;11.348;2023-03-01T08:34:14;25.90;;;17.27;;
1603;SDS011;795;49.296;11.348;2023-03-01T08:36:44;22.03;;;15.17;;
1603;SDS011;795;49.296;11.348;2023-03-01T08:39:13;20.63;;;13.23;;
1603;SDS011;795;49.296;11.348;2023-03-01T08:41:44;24.20;;;16.60;;
1603;SDS011;795;49.296;11.348;2023-03-01T08:44:14;28.07;;;14.70;;
1603;SDS011;795;49.296;11.348;2023-03-01T08:46:47;29.23;;;16.40;;
1603;SDS011;795;49.296;11.348;2023-03-01T08:49:17;19.50;;;13.40;;
1603;SDS011;795;49.296;11.348;2023-03-01T08:51:46;25.73;;;15.33;;
1603;SDS011;795;49.296;11.348;2023-03-01T08:54:15;25.90;;;16.70;;
1603;SDS011;795;49.296;11.348;2023-03-01T08:56:47;26.10;;;15.80;;
1603;SDS011;795;49.296;11.348;2023-03-01T08:59:16;24.13;;;15.63;;
1603;SDS011;795;49.296;11.348;2023-03-01T09:03:35;24.93;;;14.13;;
1603;SDS011;795;49.296;11.348;2023-03-01T09:06:03;21.93;;;16.40;;
1603;SDS011;795;49.296;11.348;2023-03-01T09:08:36;26.17;;;16.80;;
1603;SDS011;795;49.296;11.348;2023-03-01T09:11:08;22.07;;;16.17;;
1603;SDS011;795;49.296;11.348;2023-03-01T09:13:39;26.03;;;16.33;;
1603;SDS011;795;49.296;11.348;2023-03-01T09:16:10;20.40;;;14.83;;
1603;SDS011;795;49.296;11.348;2023-03-01T09:18:40;23.73;;;15.20;;
1603;SDS011;795;49.296;11.348;2023-03-01T09:21:08;20.37;;;14.50;;
1603;SDS011;795;49.296;11.348;2023-03-01T09:23:41;22.00;;;14.60;;
1603;SDS011;795;49.296;11.348;2023-03-01T09:26:13;25.63;;;15.43;;
1603;SDS011;795;49.296;11.348;2023-03-01T09:28:51;20.80;;;13.97;;
1603;SDS011;795;49.296;11.348;2023-03-01T09:31:22;19.40;;;13.70;;
1603;SDS011;795;49.296;11.348;2023-03-01T09:33:52;26.50;;;16.17;;
1603;SDS011;795;49.296;11.348;2023-03-01T09:36:22;23.23;;;16.70;;
1603;SDS011;795;49.296;11.348;2023-03-01T09:38:51;20.20;;;15.07;;
1603;SDS011;795;49.296;11.348;2023-03-01T09:47:17;19.73;;;13.23;;
1603;SDS011;795;49.296;11.348;2023-03-01T09:50:33;20.30;;;15.07;;
1603;SDS011;795;49.296;11.348;2023-03-01T10:07:42;20.37;;;14.83;;
1603;SDS011;795;49.296;11.348;2023-03-01T10:10:42;22.43;;;14.33;;
1603;SDS011;795;49.296;11.348;2023-03-01T10:13:19;20.00;;;14.57;;
1603;SDS011;795;49.296;11.348;2023-03-01T10:16:13;21.67;;;14.63;;
1603;SDS011;795;49.296;11.348;2023-03-01T10:18:51;19.90;;;13.93;;
1603;SDS011;795;49.296;11.348;2023-03-01T10:21:27;21.07;;;14.43;;
1603;SDS011;795;49.296;11.348;2023-03-01T10:24:01;19.20;;;14.67;;
1603;SDS011;795;49.296;11.348;2023-03-01T10:27:04;21.80;;;14.03;;
1603;SDS011;795;49.296;11.348;2023-03-01T10:29:46;17.43;;;12.70;;
1603;SDS011;795;49.296;11.348;2023-03-01T10:32:37;21.83;;;14.43;;
1603;SDS011;795;49.296;11.348;2023-03-01T10:35:18;22.67;;;15.57;;
1603;SDS011;795;49.296;11.348;2023-03-01T10:37:58;18.60;;;15.27;;
1603;SDS011;795;49.296;11.348;2023-03-01T10:40:53;24.00;;;14.77;;
1603;SDS011;795;49.296;11.348;2023-03-01T10:43:39;20.40;;;14.87;;
1603;SDS011;795;49.296;11.348;2023-03-01T10:47:01;20.70;;;14.70;;
1603;SDS011;795;49.296;11.348;2023-03-01T10:49:28;19.07;;;14.60;;
1603;SDS011;795;49.296;11.348;2023-03-01T10:51:56;25.03;;;15.83;;
1603;SDS011;795;49.296;11.348;2023-03-01T10:54:51;16.43;;;13.37;;
1603;SDS011;795;49.296;11.348;2023-03-01T10:57:34;19.47;;;14.17;;
1603;SDS011;795;49.296;11.348;2023-03-01T11:00:16;18.10;;;14.70;;
1603;SDS011;795;49.296;11.348;2023-03-01T11:05:24;24.23;;;15.30;;
1603;SDS011;795;49.296;11.348;2023-03-01T11:07:55;22.50;;;14.83;;
1603;SDS011;795;49.296;11.348;2023-03-01T11:10:26;20.37;;;14.93;;
1603;SDS011;795;49.296;11.348;2023-03-01T11:13:13;21.77;;;15.30;;
1603;SDS011;795;49.296;11.348;2023-03-01T11:16:01;21.53;;;15.73;;
1603;SDS011;795;49.296;11.348;2023-03-01T11:18:36;21.60;;;16.40;;
1603;SDS011;795;49.296;11.348;2023-03-01T11:21:14;17.13;;;14.17;;
1603;SDS011;795;49.296;11.348;2023-03-01T11:23:43;19.27;;;15.50;;
1603;SDS011;795;49.296;11.348;2023-03-01T11:26:13;15.93;;;14.20;;
1603;SDS011;795;49.296;11.348;2023-03-01T11:28:43;16.87;;;14.73;;
1603;SDS011;795;49.296;11.348;2023-03-01T11:31:21;21.60;;;15.10;;
1603;SDS011;795;49.296;11.348;2023-03-01T11:33:59;16.43;;;12.63;;
1603;SDS011;795;49.296;11.348;2023-03-01T11:36:45;17.37;;;14.57;;
1603;SDS011;795;49.296;11.348;2023-03-01T11:39:37;17.80;;;12.90;;
1603;SDS011;795;49.296;11.348;2023-03-01T11:42:37;15.83;;;12.30;;
1603;SDS011;795;49.296;11.348;2023-03-01T11:45:31;19.40;;;13.07;;
1603;SDS011;795;49.296;11.348;2023-03-01T11:55:30;17.73;;;14.67;;
1603;SDS011;795;49.296;11.348;2023-03-01T12:01:32;16.40;;;12.67;;
1603;SDS011;795;49.296;11.348;2023-03-01T12:07:36;15.90;;;12.57;;
1603;SDS011;795;49.296;11.348;2023-03-01T12:10:57;21.50;;;13.50;;
1603;SDS011;795;49.296;11.348;2023-03-01T12:22:50;17.63;;;14.80;;
1603;SDS011;795;49.296;11.348;2023-03-01T12:28:52;17.13;;;13.83;;
1603;SDS011;795;49.296;11.348;2023-03-01T12:47:56;18.90;;;14.70;;
1603;SDS011;795;49.296;11.348;2023-03-01T12:51:06;15.73;;;13.87;;
1603;SDS011;795;49.296;11.348;2023-03-01T12:53:49;17.30;;;13.37;;
1603;SDS011;795;49.296;11.348;2023-03-01T12:56:21;18.33;;;14.20;;
1603;SDS011;795;49.296;11.348;2023-03-01T12:59:08;17.17;;;14.13;;
1603;SDS011;795;49.296;11.348;2023-03-01T13:05:22;16.47;;;13.43;;
1603;SDS011;795;49.296;11.348;2023-03-01T13:08:38;16.83;;;13.70;;
1603;SDS011;795;49.296;11.348;2023-03-01T13:11:28;17.77;;;13.90;;
1603;SDS011;795;49.296;11.348;2023-03-01T13:16:54;16.30;;;12.70;;
1603;SDS011;795;49.296;11.348;2023-03-01T13:19:25;17.60;;;13.20;;
1603;SDS011;795;49.296;11.348;2023-03-01T13:22:24;17.67;;;13.23;;
1603;SDS011;795;49.296;11.348;2023-03-01T13:25:02;14.53;;;12.20;;
1603;SDS011;795;49.296;11.348;2023-03-01T13:27:44;15.87;;;12.93;;
1603;SDS011;795;49.296;11.348;2023-03-01T13:30:37;16.40;;;13.47;;
1603;SDS011;795;49.296;11.348;2023-03-01T13:35:49;14.23;;;12.20;;
1603;SDS011;795;49.296;11.348;2023-03-01T13:41:48;21.13;;;13.10;;
1603;SDS011;795;49.296;11.348;2023-03-01T13:46:59;16.60;;;13.73;;
1603;SDS011;795;49.296;11.348;2023-03-01T13:49:41;20.90;;;14.10;;
1603;SDS011;795;49.296;11.348;2023-03-01T13:55:38;19.20;;;14.40;;
1603;SDS011;795;49.296;11.348;2023-03-01T13:58:29;18.30;;;12.97;;
1603;SDS011;795;49.296;11.348;2023-03-01T14:01:26;16.90;;;14.30;;
1603;SDS011;795;49.296;11.348;2023-03-01T14:04:03;18.20;;;13.50;;
1603;SDS011;795;49.296;11.348;2023-03-01T14:06:49;18.27;;;13.87;;
1603;SDS011;795;49.296;11.348;2023-03-01T14:09:18;19.20;;;14.33;;
1603;SDS011;795;49.296;11.348;2023-03-01T14:11:58;16.63;;;13.20;;
1603;SDS011;795;49.296;11.348;2023-03-01T14:20:22;18.70;;;13.70;;
1603;SDS011;795;49.296;11.348;2023-03-01T14:22:59;17.87;;;14.13;;
1603;SDS011;795;49.296;11.348;2023-03-01T14:25:37;17.10;;;13.60;;
1603;SDS011;795;49.296;11.348;2023-03-01T14:28:17;20.37;;;14.20;;
1603;SDS011;795;49.296;11.348;2023-03-01T14:30:53;15.07;;;13.10;;
1603;SDS011;795;49.296;11.348;2023-03-01T14:38:40;16.87;;;12.80;;
1603;SDS011;795;49.296;11.348;2023-03-01T14:43:51;16.33;;;12.80;;
1603;SDS011;795;49.296;11.348;2023-03-01T14:46:36;16.20;;;11.73;;
1603;SDS011;795;49.296;11.348;2023-03-01T14:49:19;17.37;;;12.73;;
1603;SDS011;795;49.296;11.348;2023-03-01T14:51:52;17.63;;;12.73;;
1603;SDS011;795;49.296;11.348;2023-03-01T14:54:39;16.80;;;12.57;;
1603;SDS011;795;49.296;11.348;2023-03-01T14:57:14;19.50;;;13.10;;
1603;SDS011;795;49.296;11.348;2023-03-01T14:59:52;17.00;;;14.10;;
1603;SDS011;795;49.296;11.348;2023-03-01T15:02:26;18.80;;;13.40;;
1603;SDS011;795;49.296;11.348;2023-03-01T15:04:57;20.07;;;13.10;;
1603;SDS011;795;49.296;11.348;2023-03-01T15:07:35;19.77;;;14.87;;
1603;SDS011;795;49.296;11.348;2023-03-01T15:10:16;18.43;;;13.73;;
1603;SDS011;795;49.296;11.348;2023-03-01T15:12:53;22.73;;;13.60;;
1603;SDS011;795;49.296;11.348;2023-03-01T15:18:17;20.37;;;14.33;;
1603;SDS011;795;49.296;11.348;2023-03-01T15:20:51;22.37;;;14.10;;
1603;SDS011;795;49.296;11.348;2023-03-01T15:23:21;21.43;;;14.60;;
1603;SDS011;795;49.296;11.348;2023-03-01T15:25:54;20.50;;;13.80;;
1603;SDS011;795;49.296;11.348;2023-03-01T15:28:27;19.73;;;15.07;;
1603;SDS011;795;49.296;11.348;2023-03-01T15:31:16;20.63;;;14.07;;
1603;SDS011;795;49.296;11.348;2023-03-01T15:37:03;15.50;;;12.50;;
1603;SDS011;795;49.296;11.348;2023-03-01T15:42:46;21.50;;;15.23;;
1603;SDS011;795;49.296;11.348;2023-03-01T15:47:47;20.03;;;13.47;;
1603;SDS011;795;49.296;11.348;2023-03-01T15:50:20;17.50;;;13.10;;
1603;SDS011;795;49.296;11.348;2023-03-01T15:53:00;20.07;;;14.17;;
1603;SDS011;795;49.296;11.348;2023-03-01T15:55:34;17.70;;;13.50;;
1603;SDS011;795;49.296;11.348;2023-03-01T15:58:05;15.93;;;12.70;;
1603;SDS011;795;49.296;11.348;2023-03-01T16:00:40;22.77;;;15.90;;
1603;SDS011;795;49.296;11.348;2023-03-01T16:03:25;18.30;;;13.80;;
1603;SDS011;795;49.296;11.348;2023-03-01T16:05:52;20.17;;;15.00;;
1603;SDS011;795;49.296;11.348;2023-03-01T16:08:19;17.50;;;12.37;;
1603;SDS011;795;49.296;11.348;2023-03-01T16:10:46;20.20;;;14.40;;
1603;SDS011;795;49.296;11.348;2023-03-01T16:13:15;21.00;;;14.47;;
1603;SDS011;795;49.296;11.348;2023-03-01T16:15:43;18.13;;;13.50;;
1603;SDS011;795;49.296;11.348;2023-03-01T16:18:11;21.60;;;13.80;;
1603;SDS011;795;49.296;11.348;2023-03-01T16:20:38;19.97;;;13.97;;
1603;SDS011;795;49.296;11.348;2023-03-01T16:23:06;18.60;;;12.27;;
1603;SDS011;795;49.296;11.348;2023-03-01T16:25:36;19.73;;;13.10;;
1603;SDS011;795;49.296;11.348;2023-03-01T16:28:04;17.80;;;13.17;;
1603;SDS011;795;49.296;11.348;2023-03-01T16:30:35;24.23;;;13.97;;
1603;SDS011;795;49.296;11.348;2023-03-01T16:33:05;18.43;;;13.20;;
1603;SDS011;795;49.296;11.348;2023-03-01T16:35:54;20.30;;;14.23;;
1603;SDS011;795;49.296;11.348;2023-03-01T16:38:21;21.70;;;14.80;;
1603;SDS011;795;49.296;11.348;2023-03-01T16:40:49;22.60;;;13.77;;
1603;SDS011;795;49.296;11.348;2023-03-01T16:43:17;20.57;;;14.17;;
1603;SDS011;795;49.296;11.348;2023-03-01T16:45:44;23.60;;;15.97;;
1603;SDS011;795;49.296;11.348;2023-03-01T16:48:12;22.43;;;14.20;;
1603;SDS011;795;49.296;11.348;2023-03-01T16:50:40;19.63;;;12.90;;
1603;SDS011;795;49.296;11.348;2023-03-01T16:53:07;23.03;;;14.17;;
1603;SDS011;795;49.296;11.348;2023-03-01T16:55:34;22.43;;;13.60;;
1603;SDS011;795;49.296;11.348;2023-03-01T16:58:01;17.47;;;12.57;;
1603;SDS011;795;49.296;11.348;2023-03-01T17:00:30;24.20;;;14.97;;
1603;SDS011;795;49.296;11.348;2023-03-01T17:02:57;21.97;;;12.83;;
1603;SDS011;795;49.296;11.348;2023-03-01T17:05:24;22.17;;;13.93;;
1603;SDS011;795;49.296;11.348;2023-03-01T17:07:51;26.37;;;14.30;;
1603;SDS011;795;49.296;11.348;2023-03-01T17:10:21;21.87;;;14.07;;
1603;SDS011;795;49.296;11.348;2023-03-01T17:12:48;24.23;;;14.50;;
1603;SDS011;795;49.296;11.348;2023-03-01T17:15:16;19.50;;;13.50;;
1603;SDS011;795;49.296;11.348;2023-03-01T17:17:43;20.87;;;13.33;;
1603;SDS011;795;49.296;11.348;2023-03-01T17:20:10;22.17;;;13.93;;
1603;SDS011;795;49.296;11.348;2023-03-01T17:22:38;23.87;;;14.73;;
1603;SDS011;795;49.296;11.348;2023-03-01T17:25:06;19.47;;;13.90;;
1603;SDS011;795;49.296;11.348;2023-03-01T17:27:36;30.43;;;14.60;;
1603;SDS011;795;49.296;11.348;2023-03-01T17:30:05;16.58;;;12.43;;